FAGO weather

Gowrie Airport
Mpumalanga, South Africa

Public forecast

Using degrees Celsius for public forecast. Weather courtesy of forecast.io.

Closest aviation weather report (METAR) to Gowrie Airport

Closest report is Hoedspruit Air Force Base Airport, 35.6 nm (66.0 km) NW. Retrieved 2020/08/07 17:00 UTC (38 minutes ago):

FAHS 071700Z AUTO 17004KT //// // ////// 16/09 Q1033

Closest aviation forecast (TAF) to Gowrie Airport

Forecast is more than 12 hours old.

Closest forecast is Hoedspruit Air Force Base Airport, 35.6 nm (66.0 km) NW. Retrieved 2017/05/23 04:01 UTC (3 years ago):

TAF FAHS 230300Z 2304/2315 VRB02KT CAVOK TX29/2312ZTN12/2304Z